Time;durP1;ratioP1;P1;durP2;ratioP2;P2;SDS_P1;SDS_P2;PMS_P1;PMS_P2;Temp;Humidity;BMP_temperature;BMP_pressure;BME280_temperature;BME280_humidity;BME280_pressure;Samples;Min_cycle;Max_cycle;Signal;HPM_P1;HPM_P2
2021/08/27 00:01:19;;;;;;;13.22;10.70;;;;;;;19.23;87.89;93921.47;827342;71;33206;-75
2021/08/27 00:16:15;;;;;;;16.42;13.85;;;;;;;19.05;88.28;93917.95;828250;71;32601;-76
2021/08/27 00:31:23;;;;;;;14.58;12.33;;;;;;;19.06;91.21;93925.37;834054;71;29766;-80
2021/08/27 00:46:36;;;;;;;17.85;12.30;;;;;;;19.05;90.95;93925.17;833847;71;29932;-77
2021/08/27 01:01:19;;;;;;;16.23;12.60;;;;;;;19.11;91.60;93933.06;833676;71;30231;-77
2021/08/27 01:16:25;;;;;;;14.68;12.35;;;;;;;19.12;92.65;93910.65;828147;71;33119;-78
2021/08/27 01:31:47;;;;;;;10.95;9.85;;;;;;;18.99;92.02;93930.02;827729;71;31490;-78
2021/08/27 01:46:22;;;;;;;14.60;12.07;;;;;;;19.00;93.12;93942.20;827438;71;32732;-82
2021/08/27 02:01:11;;;;;;;17.57;13.72;;;;;;;18.86;92.87;93928.10;828267;71;29751;-78
2021/08/27 02:16:35;;;;;;;16.15;11.55;;;;;;;18.53;92.28;93913.45;834655;71;32860;-78
2021/08/27 02:31:28;;;;;;;12.88;10.60;;;;;;;18.37;95.35;93916.20;827243;71;33284;-76
2021/08/27 02:46:20;;;;;;;12.58;10.85;;;;;;;18.15;94.61;93920.33;828051;71;30274;-81
2021/08/27 03:16:31;;;;;;;15.58;10.90;;;;;;;19.70;91.72;93924.25;827184;71;32771;-78
2021/08/27 03:31:26;;;;;;;8.88;7.60;;;;;;;21.40;80.04;93917.13;833748;71;32691;-78
2021/08/27 03:46:16;;;;;;;8.40;7.47;;;;;;;22.46;74.24;93950.75;828199;71;30159;-77
2021/08/27 04:01:14;;;;;;;7.73;6.93;;;;;;;23.20;70.51;93927.24;828176;71;29851;-76
2021/08/27 04:16:12;;;;;;;7.93;6.73;;;;;;;23.27;69.75;93937.94;828247;71;29774;-75
2021/08/27 04:31:13;;;;;;;9.40;7.93;;;;;;;23.02;70.33;93949.97;828164;71;32449;-77
2021/08/27 04:46:22;;;;;;;12.03;8.40;;;;;;;22.60;71.50;93956.72;828258;71;29742;-75
2021/08/27 05:01:21;;;;;;;13.80;12.47;;;;;;;22.40;76.04;93950.38;828554;71;30581;-75
2021/08/27 05:16:18;;;;;;;9.33;7.50;;;;;;;22.56;74.34;93955.95;828294;71;30183;-76
2021/08/27 05:17:22;;;;;;;9.47;7.80;;;;;;;22.53;74.50;93964.16;808597;72;26293;-78
2021/08/27 05:31:17;;;;;;;8.70;7.80;;;;;;;22.17;77.75;93959.97;828423;71;29710;-76
2021/08/27 05:46:30;;;;;;;9.90;8.90;;;;;;;21.67;77.05;93970.92;829745;71;30242;-77
2021/08/27 06:01:13;;;;;;;10.97;9.63;;;;;;;21.18;80.51;93972.80;828766;71;30930;-79
2021/08/27 06:16:10;;;;;;;11.33;10.13;;;;;;;21.85;80.29;93984.41;828182;71;30321;-76
2021/08/27 06:31:28;;;;;;;14.43;12.93;;;;;;;21.37;80.61;93983.27;833951;71;32679;-75
2021/08/27 06:46:22;;;;;;;13.20;11.80;;;;;;;21.17;82.41;93981.95;829198;71;29749;-79
2021/08/27 07:01:18;;;;;;;12.83;11.53;;;;;;;20.91;81.85;93993.52;828197;71;30362;-75
2021/08/27 07:16:18;;;;;;;14.80;13.30;;;;;;;20.88;82.04;93994.99;828166;71;30857;-75
2021/08/27 07:31:20;;;;;;;17.70;14.90;;;;;;;21.68;78.50;94020.54;827655;71;33295;-80
2021/08/27 07:46:12;;;;;;;17.70;14.63;;;;;;;22.00;79.07;94022.87;828371;71;29767;-78
2021/08/27 08:01:11;;;;;;;16.37;14.67;;;;;;;23.39;74.43;94014.45;829640;71;30354;-78
2021/08/27 08:02:15;;;;;;;17.50;15.80;;;;;;;23.38;73.01;94017.71;809076;73;26560;-78
2021/08/27 08:16:23;;;;;;;15.93;14.30;;;;;;;24.08;68.88;94014.64;828729;71;29717;-78
2021/08/27 08:31:21;;;;;;;17.40;15.70;;;;;;;24.42;67.78;94008.06;833953;71;29696;-79
2021/08/27 08:46:44;;;;;;;17.62;15.83;;;;;;;24.84;66.24;93995.64;828392;71;32766;-78
2021/08/27 09:16:18;;;;;;;16.40;14.80;;;;;;;25.85;61.32;93997.09;827543;71;31685;-82
2021/08/27 09:31:14;;;;;;;18.43;16.63;;;;;;;26.38;59.50;93984.50;833821;71;32213;-77
2021/08/27 09:46:28;;;;;;;20.03;17.93;;;;;;;26.90;59.50;93969.28;828377;71;27571;-78
2021/08/27 10:01:10;;;;;;;18.20;15.77;;;;;;;26.78;58.61;93957.91;828289;71;29852;-78
2021/08/27 10:16:12;;;;;;;18.53;16.47;;;;;;;27.10;56.53;93949.95;812213;70;27748;-80
2021/08/27 10:31:40;;;;;;;16.97;15.20;;;;;;;26.98;56.43;93922.23;829321;71;31948;-81
2021/08/27 10:46:49;;;;;;;16.30;14.80;;;;;;;27.50;53.39;93917.05;827885;71;32620;-79
2021/08/27 11:01:33;;;;;;;16.63;14.93;;;;;;;27.58;54.33;93896.28;827251;71;31258;-78
2021/08/27 11:16:26;;;;;;;16.00;14.57;;;;;;;27.77;52.03;93902.87;827320;71;30821;-79
2021/08/27 11:31:21;;;;;;;16.10;14.50;;;;;;;27.01;52.69;93910.66;817921;71;32517;-78
2021/08/27 11:46:25;;;;;;;16.30;14.70;;;;;;;27.53;51.57;93929.09;827149;71;32305;-79
2021/08/27 12:01:31;;;;;;;14.50;13.10;;;;;;;27.57;52.06;93937.91;828080;71;28119;-78
2021/08/27 12:16:11;;;;;;;14.50;13.27;;;;;;;28.10;50.47;93919.84;833711;71;28368;-77
2021/08/27 12:31:24;;;;;;;14.70;13.33;;;;;;;28.04;48.44;93914.76;828486;71;29867;-76
2021/08/27 12:46:29;;;;;;;14.13;12.93;;;;;;;27.88;49.25;93910.04;827473;71;32733;-74
2021/08/27 13:01:28;;;;;;;14.73;13.30;;;;;;;27.33;49.36;93901.32;827410;71;33224;-76
2021/08/27 13:16:22;;;;;;;14.13;12.73;;;;;;;27.26;48.96;93890.67;827214;71;32725;-75
2021/08/27 13:31:44;;;;;;;14.03;12.83;;;;;;;27.06;49.21;93884.59;827599;71;32794;-75
2021/08/27 13:46:12;;;;;;;13.70;12.37;;;;;;;27.12;49.37;93885.65;827999;71;29493;-76
2021/08/27 14:01:29;;;;;;;15.23;13.67;;;;;;;26.85;49.16;93888.97;828017;71;32858;-77
2021/08/27 14:16:29;;;;;;;15.70;13.63;;;;;;;26.89;50.76;93885.64;792886;74;32924;-76
2021/08/27 14:31:24;;;;;;;13.73;12.50;;;;;;;26.88;50.17;93893.52;834233;71;29726;-77
2021/08/27 14:46:23;;;;;;;15.00;13.60;;;;;;;26.94;48.92;93870.36;833788;71;32434;-78
2021/08/27 15:16:22;;;;;;;14.67;13.27;;;;;;;26.88;49.26;93869.30;828930;71;32744;-86
2021/08/27 15:31:34;;;;;;;13.40;12.13;;;;;;;26.82;48.36;93862.25;829795;71;32069;-80
2021/08/27 15:46:15;;;;;;;14.10;12.80;;;;;;;26.72;50.03;93870.69;835955;70;31608;-81
2021/08/27 16:01:19;;;;;;;14.43;13.13;;;;;;;26.56;51.91;93876.64;829457;71;32810;-85
2021/08/27 16:16:22;;;;;;;14.93;13.43;;;;;;;;;;828252;71;29974;-77
2021/08/27 16:31:21;;;;;;;20.90;18.90;;;;;;;;;;826227;71;30283;-74
2021/08/27 16:46:43;;;;;;;14.87;13.50;;;;;;;25.41;54.29;165365.89;812210;71;32931;-78
2021/08/27 17:01:22;;;;;;;14.97;13.50;;;;;;;25.09;54.99;93894.25;827453;71;32778;-77
2021/08/27 17:16:15;;;;;;;14.07;12.77;;;;;;;24.75;55.63;93916.33;834093;71;30785;-78
2021/08/27 17:31:17;;;;;;;15.00;13.60;;;;;;;24.53;56.09;93935.03;816251;71;32744;-75
2021/08/27 17:46:17;;;;;;;15.23;13.60;;;;;;;24.24;56.85;93947.20;833991;71;32728;-77
2021/08/27 18:01:23;;;;;;;13.43;12.03;;;;;;;24.14;57.01;93962.16;828244;71;30617;-76
2021/08/27 18:16:21;;;;;;;13.27;11.97;;;;;;;24.48;56.95;93981.03;828178;71;29787;-79
2021/08/27 18:31:34;;;;;;;15.30;13.90;;;;;;;24.52;56.85;93995.22;827954;71;29695;-74
2021/08/27 18:46:17;;;;;;;15.63;13.93;;;;;;;24.69;57.21;94025.81;828238;71;29828;-76
2021/08/27 19:01:21;;;;;;;14.90;13.40;;;;;;;24.99;57.06;94050.22;827516;71;32793;-76
2021/08/27 19:16:19;;;;;;;16.63;14.83;;;;;;;25.25;56.63;94057.61;827108;71;31790;-77
2021/08/27 19:31:17;;;;;;;14.50;13.10;;;;;;;25.25;56.67;94071.03;818766;71;31666;-74
2021/08/27 19:46:13;;;;;;;14.70;13.17;;;;;;;25.30;57.69;94070.61;828155;71;30808;-77
2021/08/27 20:01:23;;;;;;;13.73;12.43;;;;;;;25.38;56.71;94080.73;828273;71;29394;-77
2021/08/27 20:16:20;;;;;;;15.07;13.57;;;;;;;25.26;56.06;94099.41;834893;71;29429;-78
2021/08/27 20:31:18;;;;;;;13.53;12.33;;;;;;;25.00;55.07;94115.44;828119;71;28785;-76
2021/08/27 20:46:16;;;;;;;15.97;14.43;;;;;;;24.11;55.15;94126.48;834159;71;28696;-76
2021/08/27 20:47:19;;;;;;;16.93;15.23;;;;;;;24.02;55.14;94125.33;821984;72;25850;-75
2021/08/27 21:16:22;;;;;;;16.67;14.97;;;;;;;23.08;56.79;94145.75;827482;71;32259;-75
2021/08/27 21:31:35;;;;;;;17.27;15.47;;;;;;;22.72;57.45;94157.58;834127;71;32309;-77
2021/08/27 21:46:12;;;;;;;18.60;16.70;;;;;;;22.39;57.96;94150.68;828780;71;29388;-77
2021/08/27 22:01:11;;;;;;;18.23;16.40;;;;;;;22.14;58.64;94157.70;828479;71;29288;-76
2021/08/27 22:16:23;;;;;;;17.57;15.83;;;;;;;21.92;59.04;94166.12;828410;71;28805;-78
2021/08/27 22:31:22;;;;;;;17.90;16.00;;;;;;;21.74;59.49;94176.06;828287;71;29619;-74
2021/08/27 22:46:24;;;;;;;19.23;17.00;;;;;;;21.56;59.78;94174.54;833873;71;32086;-77
2021/08/27 23:01:16;;;;;;;17.87;15.97;;;;;;;21.41;60.08;94182.16;828462;71;28709;-76
2021/08/27 23:16:14;;;;;;;19.20;16.37;;;;;;;21.29;60.24;94191.73;828398;71;28685;-78
2021/08/27 23:31:12;;;;;;;20.20;17.35;;;;;;;21.11;60.46;94184.87;828391;71;29154;-77
2021/08/27 23:46:19;;;;;;;17.37;15.55;;;;;;;20.88;60.69;94184.94;834195;71;32278;-76
